This is the latest recevied weather packets stored in our database for station/object EA3AGY-13. If no packets are shown the sender has not sent any weather packets the latest 1 day(s).
| Time | Temp. | Humidity | Pressure | Rain* | Wind** | Luminosity | Snow |
|---|---|---|---|---|---|---|---|
| 1778099435 | 4.44° C | 39% | 1012.2 hPa | 1.52 mm | - | - | - |
| 1778098230 | 8.89° C | 31% | 1011.7 hPa | 1.52 mm | - | - | - |
| 1778096423 | 8.89° C | 30% | 1011.2 hPa | 1.52 mm | - | - | - |
| 1778094014 | 9.44° C | 29% | 1010.7 hPa | 0 mm | - | - | - |
| 1778092810 | 9.44° C | 29% | 1010.7 hPa | 0 mm | - | - | - |
| 1778089198 | 10° C | 30% | 1010.2 hPa | 0 mm | - | - | - |
| 1778083167 | 10° C | 19% | 1009.4 hPa | 0 mm | - | - | - |
| 1778078348 | 12.22° C | 24% | 1009.4 hPa | 0 mm | - | - | - |
| 1778076541 | 11.11° C | 29% | 1009.5 hPa | 0 mm | - | - | - |
| 1778075939 | 12.22° C | 27% | 1009.5 hPa | 0 mm | - | - | - |
| 1778075336 | 11.67° C | 27% | 1009.6 hPa | 0 mm | - | - | - |
| 1778068710 | 11.11° C | 25% | 1010 hPa | 1.78 mm | - | - | - |
| 1778066903 | 12.22° C | 29% | 1009.8 hPa | 1.78 mm | - | - | - |
| 1778065698 | 11.11° C | 28% | 1010 hPa | 1.78 mm | - | - | - |
| 1778065096 | 10° C | 28% | 1010 hPa | 1.78 mm | - | - | - |
| 1778063289 | 10.56° C | 31% | 1009.9 hPa | 1.78 mm | - | - | - |
| 1778062688 | 10.56° C | 31% | 1009.9 hPa | 1.78 mm | - | - | - |
| 1778057266 | 9.44° C | 28% | 1009.2 hPa | 1.78 mm | - | - | - |
| 1778054253 | 8.89° C | 35% | 1009.3 hPa | 1.78 mm | - | - | - |
| 1778053652 | 8.33° C | 36% | 1009.3 hPa | 1.78 mm | - | - | - |
| 1778052446 | 7.78° C | 37% | 1009.3 hPa | 1.78 mm | - | - | - |
| 1778051844 | 7.78° C | 37% | 1009.3 hPa | 1.78 mm | - | - | - |
| 1778050641 | 7.22° C | 37% | 1009.3 hPa | 1.78 mm | - | - | - |
| 1778049437 | 6.67° C | 37% | 1009.1 hPa | 1.78 mm | - | - | - |
| 1778048832 | 6.11° C | 34% | 1009 hPa | 1.78 mm | - | - | - |
* Rain since midnight (hover to see other rain measurements)
** Current wind speed in m/s (hover to see current wind gust speed)